Les Cayes, Haiti
Current Conditions -  °F | °C
As of 9:56 AM on Friday 19 Dec 2014 (Local Time) from MUGM Reporting Station
Scattered Clouds Scattered Clouds  
Wind Chill: 28°   Ceiling: Unl
Heat Index: 30°   Visibility: 6mi
Dew Point: 19°   Wind: 15mph
Humidity: 58%   Direction: 20°NNE
Pressure: 30.04"   Gusts: NA
Location:  18.2°N, 73.75°W
Report Text: MUGM 191456Z 02013KT 9999 FEW035 SCT060 28/19 A3004 RMK SLP174 T02830194 50011
Loading
Personal Weather Stations






























Interactive Weather Map New forecast layout! Learn more

10-Day Weather Forecast

Advertisements
Track Severe Weather on mobile